createdAt,value
2023-02-15T00:03:18.024Z,3.80
2023-02-15T00:08:20.865Z,3.90
2023-02-15T00:13:23.646Z,3.80
2023-02-15T00:18:26.517Z,3.80
2023-02-15T00:23:29.374Z,3.80
2023-02-15T00:28:32.638Z,3.80
2023-02-15T00:33:36.420Z,3.90
2023-02-15T00:38:39.432Z,3.80
2023-02-15T00:43:42.026Z,3.80
2023-02-15T00:48:44.701Z,3.80
2023-02-15T00:53:47.483Z,3.90
2023-02-15T00:58:50.302Z,3.90
2023-02-15T01:03:53.205Z,4.00
2023-02-15T01:08:56.024Z,4.00
2023-02-15T01:13:59.737Z,4.00
2023-02-15T01:19:03.908Z,4.00
2023-02-15T01:24:16.330Z,4.10
2023-02-15T01:29:19.030Z,4.10
2023-02-15T01:34:21.962Z,4.00
2023-02-15T01:39:24.642Z,4.10
2023-02-15T01:44:58.953Z,4.00
2023-02-15T01:50:22.870Z,4.00
2023-02-15T01:55:30.336Z,4.00
2023-02-15T02:00:35.180Z,4.00
2023-02-15T02:05:39.230Z,3.90
2023-02-15T02:10:41.993Z,3.90
2023-02-15T02:16:10.420Z,3.90
2023-02-15T02:21:49.200Z,3.90
2023-02-15T02:27:15.286Z,3.90
2023-02-15T02:32:39.488Z,4.00
2023-02-15T02:38:08.431Z,4.00
2023-02-15T02:43:39.707Z,4.00
2023-02-15T02:48:42.533Z,3.80
2023-02-15T02:53:45.167Z,3.80
2023-02-15T02:59:20.010Z,3.80
2023-02-15T03:04:29.660Z,3.80
2023-02-15T03:09:43.422Z,3.70
2023-02-15T03:14:53.613Z,3.80
2023-02-15T03:20:01.601Z,3.70
2023-02-15T03:25:13.861Z,3.70
2023-02-15T03:30:22.252Z,3.70
2023-02-15T03:35:30.881Z,3.60
2023-02-15T03:40:58.870Z,3.60
2023-02-15T03:46:14.073Z,3.60
2023-02-15T03:51:36.142Z,3.60
2023-02-15T03:56:42.253Z,3.60
2023-02-15T04:02:01.253Z,3.60
2023-02-15T04:07:06.663Z,3.60
2023-02-15T04:12:09.527Z,3.60
2023-02-15T04:17:12.182Z,3.60
2023-02-15T04:22:33.223Z,3.60
2023-02-15T04:27:36.433Z,3.50
2023-02-15T04:32:39.735Z,3.50
2023-02-15T04:37:43.250Z,3.50
2023-02-15T04:42:45.936Z,3.50
2023-02-15T04:47:48.560Z,3.40
2023-02-15T04:52:51.272Z,3.40
2023-02-15T04:57:54.011Z,3.40
2023-02-15T05:02:56.722Z,3.40
2023-02-15T05:07:59.996Z,3.30
2023-02-15T05:13:02.660Z,3.30
2023-02-15T05:18:07.081Z,3.20
2023-02-15T05:23:09.790Z,3.20
2023-02-15T05:28:22.220Z,3.10
2023-02-15T05:33:24.921Z,3.10
2023-02-15T05:38:27.762Z,3.10
2023-02-15T05:43:30.867Z,3.10
2023-02-15T05:48:34.588Z,3.00
2023-02-15T05:53:39.387Z,3.00
2023-02-15T05:58:43.230Z,3.00
2023-02-15T06:03:47.343Z,2.90
2023-02-15T06:08:50.274Z,2.80
2023-02-15T06:13:52.940Z,2.80
2023-02-15T06:18:55.729Z,2.80
2023-02-15T06:23:58.871Z,2.70
2023-02-15T06:29:01.932Z,2.70
2023-02-15T06:34:04.728Z,2.70
2023-02-15T06:39:07.751Z,2.70
2023-02-15T06:44:10.789Z,2.60
2023-02-15T06:49:13.543Z,2.70
2023-02-15T06:54:16.429Z,3.20
2023-02-15T06:59:19.208Z,3.80
2023-02-15T07:04:22.007Z,4.30
2023-02-15T07:09:24.786Z,3.80
2023-02-15T07:14:28.969Z,4.60
2023-02-15T07:19:31.942Z,4.70
2023-02-15T07:24:34.641Z,7.20
2023-02-15T07:29:37.460Z,6.60
2023-02-15T07:34:41.693Z,7.10
2023-02-15T07:39:44.327Z,6.80
2023-02-15T07:44:47.520Z,7.90
2023-02-15T07:49:50.620Z,7.80
2023-02-15T07:54:53.580Z,7.20
2023-02-15T07:59:56.301Z,7.40
2023-02-15T08:04:59.134Z,6.50
2023-02-15T08:10:01.945Z,7.40
2023-02-15T08:15:05.844Z,7.70
2023-02-15T08:20:09.792Z,8.60
2023-02-15T08:25:12.512Z,7.40
2023-02-15T08:30:15.836Z,7.90
2023-02-15T08:35:18.694Z,9.10
2023-02-15T08:40:21.965Z,8.70
2023-02-15T08:45:26.798Z,9.10
2023-02-15T08:50:29.558Z,8.40
2023-02-15T08:55:32.526Z,8.30
2023-02-15T09:00:35.410Z,9.40
2023-02-15T09:05:38.267Z,9.90
2023-02-15T09:10:41.071Z,12.10
2023-02-15T09:15:43.780Z,13.60
2023-02-15T09:20:46.539Z,15.40
2023-02-15T09:25:49.354Z,16.50
2023-02-15T09:30:52.662Z,15.80
2023-02-15T09:35:55.792Z,18.40
2023-02-15T09:41:18.154Z,17.30
2023-02-15T09:46:42.333Z,16.50
2023-02-15T09:52:05.373Z,15.50
2023-02-15T09:57:35.885Z,15.50
2023-02-15T10:02:53.686Z,17.30
2023-02-15T10:08:14.996Z,18.20
2023-02-15T10:13:38.215Z,18.70
2023-02-15T10:18:53.770Z,17.20
2023-02-15T10:24:15.215Z,19.20
2023-02-15T10:29:37.549Z,19.10
2023-02-15T10:34:49.317Z,18.80
2023-02-15T10:40:14.088Z,17.80
2023-02-15T10:45:45.811Z,16.60
2023-02-15T10:50:54.433Z,19.30
2023-02-15T10:56:28.108Z,18.40
2023-02-15T11:01:52.815Z,18.50
2023-02-15T11:07:00.235Z,17.40
2023-02-15T11:12:03.683Z,18.00
2023-02-15T11:17:24.969Z,18.20
2023-02-15T11:22:28.119Z,16.10
2023-02-15T11:27:36.518Z,17.50
2023-02-15T11:32:48.424Z,19.60
2023-02-15T11:38:07.412Z,18.60
2023-02-15T11:43:24.590Z,17.00
2023-02-15T11:48:27.435Z,18.90
2023-02-15T11:53:34.987Z,19.50
2023-02-15T11:58:44.085Z,19.30
2023-02-15T12:04:03.358Z,17.80
2023-02-15T12:09:09.187Z,16.50
2023-02-15T12:14:17.132Z,16.50
2023-02-15T12:19:29.547Z,16.80
2023-02-15T12:24:45.654Z,18.20
2023-02-15T12:29:55.061Z,18.10
2023-02-15T12:35:09.488Z,18.20
2023-02-15T12:40:41.472Z,18.70
2023-02-15T12:45:44.994Z,17.20
2023-02-15T12:50:54.728Z,17.80
2023-02-15T12:56:07.306Z,18.40
2023-02-15T13:01:17.746Z,18.90
2023-02-15T13:06:22.016Z,18.40
2023-02-15T13:11:35.416Z,19.10
2023-02-15T13:16:41.012Z,18.90
2023-02-15T13:21:49.035Z,17.50
2023-02-15T13:26:55.953Z,17.70
2023-02-15T13:32:18.712Z,16.70
2023-02-15T13:37:27.531Z,17.70
2023-02-15T13:42:34.402Z,17.10
2023-02-15T13:47:55.922Z,17.70
2023-02-15T13:53:23.154Z,17.70
2023-02-15T13:58:41.152Z,17.80
2023-02-15T14:04:28.184Z,17.20
2023-02-15T14:09:53.211Z,16.70
2023-02-15T14:15:23.887Z,16.10
2023-02-15T14:20:32.801Z,14.80
2023-02-15T14:25:42.852Z,14.70
2023-02-15T14:30:51.279Z,14.70
2023-02-15T14:35:55.484Z,13.90
2023-02-15T14:41:16.393Z,13.40
2023-02-15T14:46:37.647Z,12.60
2023-02-15T14:51:52.048Z,11.80
2023-02-15T14:57:04.214Z,11.40
2023-02-15T15:02:10.025Z,11.30
2023-02-15T15:07:27.999Z,11.10
2023-02-15T15:12:33.775Z,10.80
2023-02-15T15:17:39.266Z,10.70
2023-02-15T15:22:44.249Z,10.20
2023-02-15T15:27:54.632Z,10.00
2023-02-15T15:32:57.890Z,9.60
2023-02-15T15:38:15.946Z,9.30
2023-02-15T15:43:35.192Z,9.10
2023-02-15T15:48:40.155Z,8.70
2023-02-15T15:53:48.369Z,8.50
2023-02-15T15:58:55.590Z,8.20
2023-02-15T16:04:00.587Z,8.30
2023-02-15T16:09:25.059Z,8.10
2023-02-15T16:14:34.028Z,7.60
2023-02-15T16:19:43.984Z,7.40
2023-02-15T16:25:06.736Z,7.20
2023-02-15T16:30:19.044Z,7.00
2023-02-15T16:35:23.805Z,6.70
2023-02-15T16:40:28.753Z,6.60
2023-02-15T16:45:33.606Z,6.50
2023-02-15T16:50:39.175Z,6.40
2023-02-15T16:55:43.790Z,6.20
2023-02-15T17:00:47.025Z,6.10
2023-02-15T17:05:53.651Z,5.80
2023-02-15T17:11:20.919Z,5.60
2023-02-15T17:16:34.391Z,5.40
2023-02-15T17:21:43.148Z,5.30
2023-02-15T17:26:52.266Z,5.20
2023-02-15T17:31:58.808Z,5.00
2023-02-15T17:37:03.527Z,4.90
2023-02-15T17:42:06.323Z,4.70
2023-02-15T17:47:16.315Z,4.50
2023-02-15T17:52:19.493Z,4.20
2023-02-15T17:57:22.383Z,4.10
2023-02-15T18:02:43.963Z,3.90
2023-02-15T18:08:05.320Z,3.70
2023-02-15T18:13:08.312Z,3.60
2023-02-15T18:18:13.817Z,3.30
2023-02-15T18:23:16.898Z,3.10
2023-02-15T18:28:19.756Z,3.20
2023-02-15T18:33:36.219Z,3.10
2023-02-15T18:38:39.215Z,3.00
2023-02-15T18:43:42.174Z,2.70
2023-02-15T18:48:46.776Z,2.40
2023-02-15T18:53:52.599Z,2.30
2023-02-15T18:58:55.291Z,2.20
2023-02-15T19:03:58.126Z,2.10
2023-02-15T19:09:01.118Z,2.00
2023-02-15T19:14:04.047Z,1.80
2023-02-15T19:19:07.499Z,1.70
2023-02-15T19:24:20.437Z,1.60
2023-02-15T19:29:30.833Z,1.60
2023-02-15T19:34:33.729Z,1.50
2023-02-15T19:39:40.604Z,1.40
2023-02-15T19:44:44.099Z,1.40
2023-02-15T19:49:46.890Z,1.10
2023-02-15T19:54:50.329Z,1.20
2023-02-15T19:59:53.042Z,1.10
2023-02-15T20:04:55.982Z,1.10
2023-02-15T20:09:58.823Z,1.00
2023-02-15T20:15:01.590Z,1.00
2023-02-15T20:20:04.618Z,1.20
2023-02-15T20:25:12.165Z,1.10
2023-02-15T20:30:26.415Z,1.10
2023-02-15T20:35:29.546Z,1.00
2023-02-15T20:40:35.423Z,0.90
2023-02-15T20:45:39.233Z,0.90
2023-02-15T20:50:41.908Z,0.70
2023-02-15T20:55:44.748Z,0.70
2023-02-15T21:00:47.777Z,0.70
2023-02-15T21:05:51.010Z,0.60
2023-02-15T21:10:54.395Z,0.70
2023-02-15T21:15:58.689Z,0.70
2023-02-15T21:21:04.142Z,0.50
2023-02-15T21:26:14.231Z,0.40
2023-02-15T21:31:23.055Z,0.40
2023-02-15T21:36:27.062Z,0.40
2023-02-15T21:41:48.180Z,0.30
2023-02-15T21:47:10.538Z,0.20
2023-02-15T21:52:14.972Z,0.20
2023-02-15T21:57:19.476Z,0.20
2023-02-15T22:02:29.402Z,0.10
2023-02-15T22:07:32.292Z,0.10
2023-02-15T22:12:35.610Z,0.00
2023-02-15T22:17:38.447Z,0.00
2023-02-15T22:22:41.288Z,-0.10
2023-02-15T22:27:45.199Z,-0.20
2023-02-15T22:32:48.173Z,-0.20
2023-02-15T22:37:51.097Z,-0.20
2023-02-15T22:42:55.493Z,-0.10
2023-02-15T22:48:00.544Z,-0.10
2023-02-15T22:53:03.974Z,0.00
2023-02-15T22:58:07.328Z,0.00
2023-02-15T23:03:25.264Z,-0.10
2023-02-15T23:08:28.118Z,-0.10
2023-02-15T23:13:33.264Z,-0.20
2023-02-15T23:18:43.851Z,-0.30
2023-02-15T23:23:49.805Z,-0.30
2023-02-15T23:28:53.181Z,-0.40
2023-02-15T23:33:56.688Z,-0.30
2023-02-15T23:39:25.182Z,-0.50
2023-02-15T23:44:28.504Z,-0.50
2023-02-15T23:49:31.227Z,-0.60
2023-02-15T23:54:33.898Z,-0.40
2023-02-15T23:59:37.332Z,-0.50
